Sulligent, Alabama
Current Conditions -  °F | °C
As of 2:35 AM on Thursday 18 Dec 2014 (Local Time) from KM40 Reporting Station
Broken Clouds Broken Clouds  
Wind Chill: 35°   Ceiling: 8500
Heat Index: 39°   Visibility: 9mi
Dew Point: 28°   Wind: 6mph
Humidity: 65%   Direction: 340°NNW
Pressure: 30.27"   Gusts: NA
Location:  33.9°N, 88.13°W
Report Text: KM40 180835Z AUTO 34005KT 9SM BKN085 04/M02 A3027 RMK AO2
Loading
Personal Weather Stations






























Interactive Weather Map New forecast layout! Learn more

10-Day Weather Forecast

Advertisements
Track Severe Weather on mobile